Time;durP1;ratioP1;P1;durP2;ratioP2;P2;SDS_P1;SDS_P2;PMS_P1;PMS_P2;Temp;Humidity;BMP_temperature;BMP_pressure;BME280_temperature;BME280_humidity;BME280_pressure;Samples;Min_cycle;Max_cycle;Signal;HPM_P1;HPM_P2
2023/07/17 00:00:45;;;;;;;6.28;2.17;;;20.30;62.20;;;;;;5075008;28;20032;-73
2023/07/17 00:03:10;;;;;;;4.72;2.25;;;20.40;61.70;;;;;;5075114;28;20029;-72
2023/07/17 00:05:36;;;;;;;2.90;2.00;;;20.40;61.10;;;;;;5074721;28;20391;-74
2023/07/17 00:08:02;;;;;;;3.40;2.30;;;20.60;60.50;;;;;;5073684;28;20093;-74
2023/07/17 00:10:27;;;;;;;3.50;1.92;;;20.80;59.80;;;;;;5075042;28;20071;-74
2023/07/17 00:12:53;;;;;;;4.88;2.28;;;20.90;59.80;;;;;;5074806;28;20017;-72
2023/07/17 00:15:18;;;;;;;5.97;2.53;;;20.70;59.80;;;;;;5074719;28;20037;-73
2023/07/17 00:17:44;;;;;;;4.65;1.70;;;20.60;60.30;;;;;;5074741;28;20119;-72
2023/07/17 00:20:11;;;;;;;6.75;2.63;;;20.50;60.80;;;;;;5073310;28;20158;-72
2023/07/17 00:22:37;;;;;;;3.85;2.13;;;20.40;60.90;;;;;;5074720;28;20023;-71
2023/07/17 00:25:04;;;;;;;5.22;2.15;;;20.30;61.30;;;;;;5074521;28;20028;-73
2023/07/17 00:27:30;;;;;;;4.72;2.17;;;20.20;61.20;;;;;;5073379;28;20067;-72
2023/07/17 00:29:55;;;;;;;6.45;2.17;;;20.20;61.30;;;;;;5072846;28;20465;-72
2023/07/17 00:32:21;;;;;;;3.83;2.25;;;20.30;60.90;;;;;;5074379;28;20143;-73
2023/07/17 00:34:47;;;;;;;4.43;2.40;;;20.20;60.50;;;;;;5074231;28;20036;-72
2023/07/17 00:37:12;;;;;;;3.53;2.17;;;20.30;60.60;;;;;;5074369;28;20024;-72
2023/07/17 00:39:38;;;;;;;6.53;2.50;;;20.30;60.10;;;;;;5074352;28;20500;-71
2023/07/17 00:42:04;;;;;;;5.18;2.10;;;20.20;60.40;;;;;;5074280;28;20058;-71
2023/07/17 00:44:30;;;;;;;3.72;1.92;;;20.20;60.80;;;;;;5074283;28;20032;-71
2023/07/17 00:46:56;;;;;;;4.38;2.45;;;20.20;60.30;;;;;;5073239;28;20369;-71
2023/07/17 00:49:24;;;;;;;6.38;2.50;;;20.10;60.80;;;;;;5074152;28;20021;-72
2023/07/17 00:51:52;;;;;;;6.22;2.38;;;20.10;60.60;;;;;;5072687;28;20036;-71
2023/07/17 00:54:18;;;;;;;4.57;2.28;;;20.20;60.30;;;;;;5073961;28;20024;-71
2023/07/17 00:56:46;;;;;;;13.32;2.78;;;20.30;59.70;;;;;;5074154;28;20054;-72
2023/07/17 00:59:12;;;;;;;4.85;2.10;;;20.50;59.30;;;;;;5073948;28;20465;-73
2023/07/17 01:01:39;;;;;;;4.32;2.28;;;20.50;58.80;;;;;;5073870;28;20103;-73
2023/07/17 01:04:05;;;;;;;7.32;2.45;;;20.50;59.10;;;;;;5073898;28;20480;-73
2023/07/17 01:06:31;;;;;;;5.75;2.47;;;20.50;58.90;;;;;;5072469;28;20024;-73
2023/07/17 01:08:57;;;;;;;6.40;2.38;;;20.30;58.60;;;;;;5073760;28;20029;-73
2023/07/17 01:11:23;;;;;;;5.57;2.22;;;20.10;59.30;;;;;;5073837;28;20280;-73
2023/07/17 01:13:50;;;;;;;4.97;2.55;;;20.20;59.40;;;;;;5072385;28;20029;-73
2023/07/17 01:16:16;;;;;;;5.28;2.63;;;20.20;59.00;;;;;;5073436;28;20116;-71
2023/07/17 01:18:42;;;;;;;6.78;3.13;;;20.20;59.10;;;;;;5073547;28;20029;-72
2023/07/17 01:21:13;;;;;;;4.30;2.20;;;20.10;59.60;;;;;;5072861;28;20044;-72
2023/07/17 01:23:39;;;;;;;5.85;2.50;;;20.00;60.20;;;;;;5073401;28;20103;-71
2023/07/17 01:26:15;;;;;;;7.05;3.03;;;20.10;60.80;;;;;;5073262;28;20432;-71
2023/07/17 01:28:42;;;;;;;10.65;2.75;;;20.10;59.70;;;;;;5073335;28;20432;-71
2023/07/17 01:31:08;;;;;;;6.38;2.30;;;20.00;59.60;;;;;;5072052;28;20032;-72
2023/07/17 01:33:34;;;;;;;4.88;2.40;;;20.00;60.20;;;;;;5073445;28;20044;-71
2023/07/17 01:36:01;;;;;;;12.35;2.70;;;20.00;59.70;;;;;;5073339;28;20048;-72
2023/07/17 01:38:26;;;;;;;4.90;2.35;;;20.10;60.90;;;;;;5073174;28;20050;-71
2023/07/17 01:40:52;;;;;;;5.90;2.47;;;20.10;59.60;;;;;;5071004;28;20028;-72
2023/07/17 01:43:18;;;;;;;5.53;2.83;;;20.10;59.70;;;;;;5073173;28;20032;-72
2023/07/17 01:45:44;;;;;;;4.25;2.58;;;20.20;59.60;;;;;;5071937;28;20016;-72
2023/07/17 01:48:10;;;;;;;8.15;2.75;;;20.30;59.20;;;;;;5073068;28;20024;-72
2023/07/17 01:50:35;;;;;;;5.32;2.40;;;20.30;59.00;;;;;;5071910;28;20024;-71
2023/07/17 01:53:01;;;;;;;4.38;2.65;;;20.30;59.00;;;;;;5073158;28;20032;-74
2023/07/17 01:55:26;;;;;;;3.63;2.42;;;20.30;58.60;;;;;;5072950;28;20388;-72
2023/07/17 01:57:52;;;;;;;5.43;2.28;;;20.20;58.20;;;;;;5072998;28;20100;-72
2023/07/17 02:00:18;;;;;;;7.63;2.25;;;20.30;59.00;;;;;;5071848;28;20480;-71
2023/07/17 02:02:43;;;;;;;5.45;2.63;;;20.40;59.30;;;;;;5072864;28;20033;-72
2023/07/17 02:05:09;;;;;;;3.35;2.33;;;20.40;59.70;;;;;;5072905;28;20017;-71
2023/07/17 02:07:35;;;;;;;4.93;2.75;;;20.30;60.10;;;;;;5072839;28;20033;-72
2023/07/17 02:10:00;;;;;;;5.57;2.90;;;20.30;60.60;;;;;;5072686;28;20107;-72
2023/07/17 02:12:26;;;;;;;7.25;3.00;;;20.20;61.40;;;;;;5072818;28;20495;-74
2023/07/17 02:14:51;;;;;;;4.15;2.47;;;20.20;62.20;;;;;;5072668;28;20489;-74
2023/07/17 02:17:17;;;;;;;8.85;2.90;;;20.10;63.20;;;;;;5072792;28;20415;-73
2023/07/17 02:19:42;;;;;;;3.75;2.70;;;20.00;63.30;;;;;;5072792;28;20115;-74
2023/07/17 02:22:08;;;;;;;6.53;2.88;;;19.90;64.00;;;;;;5072640;28;20048;-73
2023/07/17 02:24:33;;;;;;;5.30;2.95;;;19.90;64.30;;;;;;5072778;28;20034;-74
2023/07/17 02:27:00;;;;;;;4.25;2.90;;;19.80;64.80;;;;;;5072740;28;20025;-74
2023/07/17 02:29:26;;;;;;;7.30;2.78;;;19.70;65.40;;;;;;5072725;28;20084;-71
2023/07/17 02:31:51;;;;;;;6.63;2.97;;;19.60;66.00;;;;;;5072587;28;20016;-74
2023/07/17 02:34:17;;;;;;;7.28;3.13;;;19.60;66.50;;;;;;5072455;28;20052;-74
2023/07/17 02:36:43;;;;;;;6.45;2.80;;;19.70;66.20;;;;;;5072660;28;20103;-74
2023/07/17 02:39:08;;;;;;;5.70;2.92;;;19.90;65.90;;;;;;5072639;28;20021;-74
2023/07/17 02:41:34;;;;;;;6.55;3.15;;;19.90;66.10;;;;;;5071393;28;20028;-74
2023/07/17 02:44:00;;;;;;;8.30;3.80;;;19.90;66.60;;;;;;5072641;28;20044;-73
2023/07/17 02:46:25;;;;;;;3.85;3.03;;;19.80;67.20;;;;;;5072420;28;20048;-75
2023/07/17 02:48:51;;;;;;;10.90;3.58;;;19.80;67.60;;;;;;5072354;28;20029;-72
2023/07/17 02:51:17;;;;;;;7.03;3.17;;;19.80;67.50;;;;;;5072227;28;20028;-74
2023/07/17 02:53:42;;;;;;;3.53;2.70;;;20.00;67.00;;;;;;5075895;28;20433;-74
2023/07/17 02:56:08;;;;;;;6.57;3.25;;;20.10;66.60;;;;;;5076340;28;20040;-73
2023/07/17 02:58:39;;;;;;;4.07;2.92;;;20.10;66.50;;;;;;5076203;28;20032;-74
2023/07/17 03:01:06;;;;;;;5.85;3.45;;;20.20;66.20;;;;;;5076243;28;20388;-74
2023/07/17 03:03:31;;;;;;;6.70;3.28;;;20.10;66.20;;;;;;5074933;28;20020;-73
2023/07/17 03:05:57;;;;;;;4.80;3.20;;;20.00;66.80;;;;;;5076120;28;20029;-74
2023/07/17 03:08:22;;;;;;;5.07;3.63;;;20.00;66.90;;;;;;5076032;28;20051;-74
2023/07/17 03:10:48;;;;;;;5.75;3.20;;;20.00;68.20;;;;;;5076061;28;20104;-74
2023/07/17 03:13:13;;;;;;;5.57;3.13;;;20.00;67.10;;;;;;5075847;28;20437;-74
2023/07/17 03:15:39;;;;;;;5.05;3.15;;;20.10;66.40;;;;;;5075808;28;20134;-74
2023/07/17 03:18:04;;;;;;;4.97;3.13;;;20.20;66.00;;;;;;5075852;28;20021;-74
2023/07/17 03:20:30;;;;;;;4.75;3.30;;;20.20;66.10;;;;;;5075493;28;20071;-73
2023/07/17 03:22:55;;;;;;;6.63;3.40;;;20.00;66.00;;;;;;5075845;28;20017;-72
2023/07/17 03:25:21;;;;;;;7.55;3.20;;;20.00;66.50;;;;;;5075795;28;20028;-72
2023/07/17 03:27:47;;;;;;;3.97;3.20;;;20.00;66.50;;;;;;5075845;28;20162;-72
2023/07/17 03:30:12;;;;;;;4.93;3.42;;;20.00;66.00;;;;;;5075645;28;20029;-72
2023/07/17 03:32:38;;;;;;;6.00;3.67;;;20.00;66.10;;;;;;5075749;28;20110;-72
2023/07/17 03:35:05;;;;;;;7.38;3.92;;;20.00;66.40;;;;;;5075574;28;20105;-72
2023/07/17 03:37:30;;;;;;;7.50;3.83;;;20.00;66.50;;;;;;5075722;28;20060;-72
2023/07/17 03:39:56;;;;;;;6.13;3.60;;;20.10;65.80;;;;;;5075407;28;20020;-72
2023/07/17 03:42:22;;;;;;;4.80;3.78;;;20.00;65.80;;;;;;5075485;28;20035;-73
2023/07/17 03:44:47;;;;;;;5.30;3.30;;;20.00;65.70;;;;;;5075089;28;20103;-72
2023/07/17 03:47:13;;;;;;;4.97;3.40;;;20.00;65.70;;;;;;5075178;28;20392;-73
2023/07/17 03:49:38;;;;;;;7.90;3.80;;;20.00;66.10;;;;;;5075145;28;20025;-72
2023/07/17 03:52:05;;;;;;;4.65;3.00;;;20.00;66.30;;;;;;5075209;28;20033;-72
2023/07/17 03:54:30;;;;;;;2.88;2.47;;;19.90;66.80;;;;;;5075064;28;20040;-72
2023/07/17 03:56:56;;;;;;;5.35;3.33;;;19.90;67.00;;;;;;5075071;28;20025;-72
2023/07/17 03:59:24;;;;;;;6.28;3.90;;;19.90;67.00;;;;;;5073808;28;20115;-72
2023/07/17 04:01:50;;;;;;;4.68;3.28;;;19.90;66.90;;;;;;5074876;28;20380;-72
2023/07/17 04:04:15;;;;;;;4.50;2.97;;;19.90;66.90;;;;;;5073840;28;20024;-72
2023/07/17 04:06:41;;;;;;;7.95;4.13;;;19.90;66.80;;;;;;5074783;28;20035;-72
2023/07/17 04:09:07;;;;;;;6.38;3.53;;;19.90;66.40;;;;;;5075010;28;20020;-72
2023/07/17 04:11:33;;;;;;;5.75;3.65;;;20.00;66.10;;;;;;5074879;28;20032;-72
2023/07/17 04:13:58;;;;;;;4.82;3.05;;;19.90;66.70;;;;;;5074899;28;20372;-72
2023/07/17 04:16:27;;;;;;;7.20;3.63;;;19.90;66.80;;;;;;5073551;28;20040;-72
2023/07/17 04:18:53;;;;;;;4.63;3.22;;;19.80;67.00;;;;;;5074852;28;20025;-72
2023/07/17 04:21:19;;;;;;;4.90;3.35;;;19.90;66.40;;;;;;5074607;28;20044;-72
2023/07/17 04:23:50;;;;;;;5.57;3.40;;;19.90;65.70;;;;;;5074586;28;20032;-72
2023/07/17 04:26:16;;;;;;;5.50;3.38;;;19.90;64.90;;;;;;5074575;28;20020;-73
2023/07/17 04:28:42;;;;;;;4.50;3.00;;;19.80;65.50;;;;;;5074559;28;20033;-72
2023/07/17 04:31:07;;;;;;;8.20;3.65;;;19.70;66.20;;;;;;5074560;28;20028;-72
2023/07/17 04:33:33;;;;;;;3.83;3.05;;;19.70;66.30;;;;;;5074528;28;20025;-73
2023/07/17 04:35:58;;;;;;;6.35;3.92;;;19.80;66.00;;;;;;5074438;28;20124;-72
2023/07/17 04:38:24;;;;;;;5.57;3.55;;;19.70;65.90;;;;;;5074431;28;20031;-72
2023/07/17 04:40:49;;;;;;;9.45;3.55;;;19.60;66.80;;;;;;5074325;28;20169;-72
2023/07/17 04:43:15;;;;;;;5.72;3.42;;;19.60;67.10;;;;;;5074317;28;20024;-72
2023/07/17 04:45:42;;;;;;;4.80;3.60;;;19.60;66.90;;;;;;5074355;28;20032;-73
2023/07/17 04:48:08;;;;;;;7.57;3.70;;;19.60;66.90;;;;;;5074400;28;20021;-73
2023/07/17 04:50:33;;;;;;;5.65;3.70;;;19.70;67.10;;;;;;5072952;28;20490;-72
2023/07/17 04:52:59;;;;;;;4.28;3.50;;;19.80;66.20;;;;;;5074231;28;20415;-72
2023/07/17 04:55:24;;;;;;;5.70;3.35;;;19.90;65.50;;;;;;5073952;28;20039;-72
2023/07/17 04:57:50;;;;;;;4.55;3.08;;;20.10;64.60;;;;;;5073952;28;20082;-73
2023/07/17 05:00:16;;;;;;;6.72;3.63;;;20.20;64.00;;;;;;5074109;28;20073;-72
2023/07/17 05:02:42;;;;;;;6.70;3.28;;;20.20;63.60;;;;;;5073866;28;20031;-72
2023/07/17 05:05:08;;;;;;;6.22;3.90;;;20.20;63.60;;;;;;5072829;28;20027;-72
2023/07/17 05:07:34;;;;;;;4.63;3.30;;;20.30;63.60;;;;;;5073961;28;20020;-72
2023/07/17 05:09:59;;;;;;;6.18;3.47;;;20.30;63.20;;;;;;5073842;28;20449;-73
2023/07/17 05:12:25;;;;;;;5.93;3.38;;;20.40;62.80;;;;;;5073596;28;20533;-72
2023/07/17 05:14:51;;;;;;;4.68;3.10;;;20.40;62.80;;;;;;5072242;28;20032;-73
2023/07/17 05:17:16;;;;;;;6.88;3.15;;;20.50;62.80;;;;;;5073341;28;20103;-73
2023/07/17 05:19:42;;;;;;;3.78;3.05;;;20.60;62.80;;;;;;5072042;28;20420;-73
2023/07/17 05:22:07;;;;;;;4.63;3.35;;;20.60;62.80;;;;;;5074450;28;20443;-73
2023/07/17 05:24:33;;;;;;;6.95;3.70;;;20.80;62.50;;;;;;5072096;28;20025;-72
2023/07/17 05:26:59;;;;;;;5.72;3.28;;;21.00;62.10;;;;;;5073095;28;20031;-72
2023/07/17 05:29:24;;;;;;;5.43;3.28;;;21.10;61.80;;;;;;5073062;28;20024;-73
2023/07/17 05:31:50;;;;;;;6.20;3.28;;;21.20;61.40;;;;;;5073053;28;20031;-74
2023/07/17 05:34:15;;;;;;;5.80;3.15;;;21.30;61.40;;;;;;5073104;28;20059;-73
2023/07/17 05:36:41;;;;;;;8.13;3.60;;;21.30;61.20;;;;;;5073310;28;20032;-76
2023/07/17 05:39:06;;;;;;;4.47;2.97;;;21.40;60.90;;;;;;5072895;28;20059;-76
2023/07/17 05:41:33;;;;;;;4.97;2.75;;;21.50;60.60;;;;;;5073014;28;20047;-75
2023/07/17 05:43:58;;;;;;;5.13;3.00;;;21.60;60.40;;;;;;5073071;28;20306;-76
2023/07/17 05:46:24;;;;;;;4.60;2.90;;;21.70;60.10;;;;;;5071827;28;20051;-76
2023/07/17 05:48:50;;;;;;;4.32;3.03;;;21.80;59.40;;;;;;5074320;28;20095;-75
2023/07/17 05:51:15;;;;;;;5.40;3.20;;;21.90;58.30;;;;;;5076493;28;20025;-75
2023/07/17 05:53:41;;;;;;;5.57;3.25;;;22.10;56.90;;;;;;5072760;28;20047;-74
2023/07/17 05:56:06;;;;;;;6.70;2.75;;;22.20;55.50;;;;;;5072563;28;20033;-74
2023/07/17 05:58:32;;;;;;;4.47;2.97;;;22.20;55.00;;;;;;5072763;28;20056;-72
2023/07/17 06:00:57;;;;;;;4.55;2.85;;;22.30;55.50;;;;;;5072641;28;20039;-73
2023/07/17 06:03:23;;;;;;;7.97;3.35;;;22.30;54.90;;;;;;5071220;28;20016;-74
2023/07/17 06:05:49;;;;;;;9.75;3.92;;;22.20;52.60;;;;;;5072587;28;20029;-74
2023/07/17 06:08:14;;;;;;;9.60;3.50;;;22.10;50.50;;;;;;5071436;28;20029;-73
2023/07/17 06:10:42;;;;;;;8.63;4.35;;;21.80;50.10;;;;;;5072647;28;20051;-74
2023/07/17 06:13:08;;;;;;;10.45;3.85;;;21.70;51.40;;;;;;5072744;28;20099;-73
2023/07/17 06:15:34;;;;;;;9.65;3.63;;;21.60;52.30;;;;;;5072533;28;20033;-74
2023/07/17 06:17:59;;;;;;;8.32;3.95;;;21.70;52.40;;;;;;5072537;28;20036;-73
2023/07/17 06:20:25;;;;;;;11.55;4.07;;;21.60;51.10;;;;;;5070998;28;20094;-75
2023/07/17 06:22:50;;;;;;;8.90;4.05;;;21.60;51.10;;;;;;5072772;28;20025;-75
2023/07/17 06:25:16;;;;;;;6.75;3.78;;;21.70;50.80;;;;;;5072586;28;20039;-75
2023/07/17 06:27:42;;;;;;;9.15;4.45;;;21.80;50.30;;;;;;5074205;28;20021;-75
2023/07/17 06:30:08;;;;;;;11.52;4.97;;;22.00;49.60;;;;;;5075482;28;20024;-75
2023/07/17 06:32:34;;;;;;;10.13;3.90;;;22.10;48.90;;;;;;5076089;28;20531;-74
2023/07/17 06:34:59;;;;;;;7.05;3.80;;;22.00;48.70;;;;;;5076656;28;20217;-74
2023/07/17 06:37:25;;;;;;;8.90;4.45;;;21.80;47.70;;;;;;5076500;28;20025;-74
2023/07/17 06:39:50;;;;;;;8.55;4.13;;;21.80;48.80;;;;;;5076446;28;20480;-74
2023/07/17 06:42:16;;;;;;;7.47;4.05;;;21.80;47.30;;;;;;5078966;28;20028;-74
2023/07/17 06:44:41;;;;;;;9.95;4.75;;;21.80;47.90;;;;;;5076907;28;20518;-74
2023/07/17 06:47:07;;;;;;;9.10;4.70;;;21.60;47.90;;;;;;5075063;28;20025;-75
2023/07/17 06:49:32;;;;;;;11.10;4.63;;;21.60;46.60;;;;;;5076445;28;20040;-75
2023/07/17 06:51:58;;;;;;;10.20;4.97;;;21.50;46.10;;;;;;5076302;28;20032;-75
2023/07/17 06:54:24;;;;;;;8.32;4.43;;;21.40;45.60;;;;;;5076077;28;20078;-75
2023/07/17 06:56:49;;;;;;;9.98;4.72;;;21.40;45.70;;;;;;5076049;28;20032;-74
2023/07/17 06:59:15;;;;;;;7.63;4.47;;;21.50;45.30;;;;;;5075996;28;20071;-74
2023/07/17 07:01:41;;;;;;;7.85;4.20;;;21.70;44.90;;;;;;5076060;28;20017;-75
2023/07/17 07:04:06;;;;;;;9.80;4.60;;;21.80;44.40;;;;;;5074788;28;20074;-73
2023/07/17 07:06:32;;;;;;;7.20;5.10;;;22.00;43.50;;;;;;5075876;28;20040;-73
2023/07/17 07:08:58;;;;;;;13.30;5.90;;;22.00;40.50;;;;;;5075942;28;20025;-74
2023/07/17 07:11:23;;;;;;;8.15;4.95;;;21.90;40.60;;;;;;5076039;28;20037;-74
2023/07/17 07:13:49;;;;;;;10.30;5.13;;;21.80;41.80;;;;;;5075757;28;20103;-74
2023/07/17 07:16:14;;;;;;;9.32;5.00;;;21.80;42.60;;;;;;5075608;28;20040;-74
2023/07/17 07:18:40;;;;;;;11.50;5.72;;;21.80;43.50;;;;;;5075691;28;20035;-74
2023/07/17 07:21:06;;;;;;;8.88;4.43;;;21.90;43.20;;;;;;5073919;28;20121;-74
2023/07/17 07:23:33;;;;;;;18.48;7.75;;;21.90;43.10;;;;;;5075317;28;20567;-76
2023/07/17 07:25:59;;;;;;;12.43;6.00;;;21.80;42.50;;;;;;5075489;28;20059;-73
2023/07/17 07:28:24;;;;;;;11.57;5.28;;;21.80;42.80;;;;;;5075306;28;20380;-72
2023/07/17 07:30:57;;;;;;;12.00;5.22;;;21.80;42.70;;;;;;5072887;28;20052;-72
2023/07/17 07:33:24;;;;;;;10.85;5.00;;;21.90;43.40;;;;;;5071590;28;20029;-74
2023/07/17 07:35:50;;;;;;;7.47;4.55;;;21.80;42.90;;;;;;5074588;28;20032;-73
2023/07/17 07:38:15;;;;;;;9.68;4.50;;;21.80;43.70;;;;;;5074582;28;20548;-72
2023/07/17 07:40:41;;;;;;;8.10;5.10;;;21.90;43.20;;;;;;5074956;28;20059;-73
2023/07/17 07:43:06;;;;;;;9.25;4.93;;;22.20;42.60;;;;;;5074862;28;20031;-74
2023/07/17 07:45:32;;;;;;;7.47;4.60;;;22.30;42.20;;;;;;5074745;28;20025;-73
2023/07/17 07:47:58;;;;;;;13.48;5.38;;;22.60;41.50;;;;;;5074851;28;20047;-74
2023/07/17 07:50:24;;;;;;;10.57;5.00;;;22.70;42.10;;;;;;5074678;28;20480;-75
2023/07/17 07:52:50;;;;;;;10.73;4.97;;;22.80;42.30;;;;;;5074847;28;20055;-74
2023/07/17 07:55:15;;;;;;;6.68;4.40;;;22.70;43.20;;;;;;5074842;28;20029;-74
2023/07/17 07:57:41;;;;;;;11.30;4.88;;;22.70;43.40;;;;;;5075019;28;20040;-74
2023/07/17 08:00:07;;;;;;;7.43;4.57;;;22.80;43.50;;;;;;5074912;28;20033;-73
2023/07/17 08:02:32;;;;;;;8.68;4.55;;;22.80;42.50;;;;;;5074860;28;20031;-75
2023/07/17 08:04:58;;;;;;;9.45;4.68;;;22.80;41.80;;;;;;5078970;28;20107;-74
2023/07/17 08:07:24;;;;;;;9.77;5.13;;;22.90;41.50;;;;;;5075210;28;20037;-73
2023/07/17 08:09:50;;;;;;;9.95;5.07;;;22.80;41.60;;;;;;5073611;28;20021;-72
2023/07/17 08:12:15;;;;;;;11.32;4.80;;;22.80;41.60;;;;;;5074856;28;20033;-73
2023/07/17 08:14:41;;;;;;;6.30;4.35;;;22.80;42.40;;;;;;5073573;28;20023;-72
2023/07/17 08:17:07;;;;;;;10.02;4.35;;;23.10;42.30;;;;;;5075069;28;20038;-71
2023/07/17 08:19:32;;;;;;;7.03;4.35;;;23.20;41.20;;;;;;5074904;28;20032;-72
2023/07/17 08:21:58;;;;;;;9.05;4.55;;;23.40;41.00;;;;;;5074656;28;20052;-72
2023/07/17 08:24:24;;;;;;;11.13;4.65;;;23.50;41.40;;;;;;5074378;28;20024;-72
2023/07/17 08:26:49;;;;;;;10.73;4.40;;;23.70;41.80;;;;;;5073311;28;20021;-74
2023/07/17 08:29:15;;;;;;;8.63;4.68;;;23.80;40.40;;;;;;5074965;28;20028;-72
2023/07/17 08:31:41;;;;;;;8.77;4.40;;;23.80;39.30;;;;;;5074641;28;20025;-72
2023/07/17 08:34:06;;;;;;;7.97;4.25;;;23.80;38.70;;;;;;5074300;28;20120;-72
2023/07/17 08:36:33;;;;;;;9.30;4.78;;;23.80;39.20;;;;;;5074036;28;20029;-71
2023/07/17 08:38:59;;;;;;;8.60;4.65;;;23.90;40.10;;;;;;5073709;28;20013;-71
2023/07/17 08:41:25;;;;;;;10.18;4.75;;;24.10;39.70;;;;;;5074228;28;20109;-72
2023/07/17 08:43:52;;;;;;;8.30;4.55;;;24.10;38.90;;;;;;5073780;28;20028;-73
2023/07/17 08:46:17;;;;;;;8.55;4.43;;;24.10;39.20;;;;;;5073364;28;20454;-73
2023/07/17 08:48:44;;;;;;;8.68;4.90;;;24.20;39.30;;;;;;5073739;28;20028;-74
2023/07/17 08:51:11;;;;;;;8.10;4.60;;;24.00;39.80;;;;;;5073416;28;20024;-73
2023/07/17 08:53:40;;;;;;;11.43;4.82;;;24.00;40.10;;;;;;5071970;28;20379;-72
2023/07/17 08:56:08;;;;;;;7.05;4.68;;;24.00;39.60;;;;;;5073137;28;20040;-73
2023/07/17 08:58:34;;;;;;;6.00;4.30;;;23.90;40.40;;;;;;5072043;28;20031;-72
2023/07/17 09:01:00;;;;;;;10.50;4.47;;;23.70;39.90;;;;;;5071817;28;20016;-72
2023/07/17 09:03:26;;;;;;;6.13;4.25;;;23.60;39.90;;;;;;5073367;28;20016;-73
2023/07/17 09:05:52;;;;;;;7.20;4.65;;;23.70;39.60;;;;;;5073130;28;20029;-73
2023/07/17 09:08:17;;;;;;;6.03;3.97;;;23.70;39.70;;;;;;5073175;28;20100;-73
2023/07/17 09:10:43;;;;;;;7.30;4.47;;;23.90;40.30;;;;;;5072920;28;20029;-72
2023/07/17 09:13:09;;;;;;;8.55;4.63;;;24.20;39.80;;;;;;5072833;28;20044;-74
2023/07/17 09:15:35;;;;;;;7.85;4.60;;;24.40;39.30;;;;;;5072584;28;20067;-73
2023/07/17 09:18:02;;;;;;;6.32;4.45;;;24.80;38.50;;;;;;5072968;28;20025;-72
2023/07/17 09:20:27;;;;;;;8.40;4.55;;;24.90;38.40;;;;;;5072693;28;20076;-73
2023/07/17 09:23:00;;;;;;;8.27;4.68;;;25.00;37.60;;;;;;5074793;28;20068;-71
2023/07/17 09:25:30;;;;;;;10.13;5.10;;;25.20;36.90;;;;;;5073167;28;20025;-73
2023/07/17 09:27:57;;;;;;;7.97;4.35;;;25.10;37.00;;;;;;5074722;28;20143;-72
2023/07/17 09:30:25;;;;;;;6.03;4.10;;;25.10;36.90;;;;;;5072654;28;20016;-73
2023/07/17 09:32:51;;;;;;;8.73;4.95;;;25.00;35.90;;;;;;5073030;28;20398;-74
2023/07/17 09:35:19;;;;;;;8.48;4.78;;;24.80;36.90;;;;;;5072672;28;20037;-74
2023/07/17 09:37:45;;;;;;;6.97;4.32;;;24.60;37.60;;;;;;5072861;28;20016;-73
2023/07/17 09:40:13;;;;;;;8.35;4.50;;;24.60;38.80;;;;;;5072755;28;20039;-74
2023/07/17 09:42:44;;;;;;;9.50;4.78;;;24.50;37.70;;;;;;5070126;28;20024;-74
2023/07/17 09:45:14;;;;;;;10.40;4.63;;;24.40;38.10;;;;;;5071209;28;20489;-73
2023/07/17 09:47:41;;;;;;;7.40;4.65;;;24.40;38.20;;;;;;5069392;28;20051;-73
2023/07/17 09:50:08;;;;;;;7.03;4.63;;;24.40;37.40;;;;;;5072483;28;20494;-75
2023/07/17 09:52:33;;;;;;;7.80;4.10;;;24.40;37.50;;;;;;5072338;28;20415;-73
2023/07/17 09:55:00;;;;;;;8.50;4.63;;;24.60;37.10;;;;;;5071234;28;20081;-73
2023/07/17 09:57:29;;;;;;;7.97;4.85;;;24.80;37.40;;;;;;5071124;28;20024;-72
2023/07/17 10:00:00;;;;;;;8.32;4.35;;;25.00;37.40;;;;;;5070885;28;20016;-73
2023/07/17 10:02:57;;;;;;;7.82;4.90;;;25.00;36.20;;;;;;5071342;28;20151;-73
2023/07/17 10:05:24;;;;;;;8.98;4.85;;;24.80;36.60;;;;;;5065232;28;20037;-73
2023/07/17 10:07:51;;;;;;;8.38;4.80;;;24.70;36.60;;;;;;5071402;28;20021;-73
2023/07/17 10:10:17;;;;;;;10.25;4.50;;;24.70;37.30;;;;;;5070877;28;20025;-73
2023/07/17 10:12:44;;;;;;;5.70;4.05;;;24.80;36.70;;;;;;5072557;28;20032;-72
2023/07/17 10:15:11;;;;;;;9.65;4.50;;;24.80;36.30;;;;;;5071967;28;20028;-73
2023/07/17 10:17:36;;;;;;;8.75;4.60;;;25.10;36.70;;;;;;5070675;28;20027;-73
2023/07/17 10:20:10;;;;;;;7.93;4.22;;;25.50;36.20;;;;;;5071605;28;20020;-73
2023/07/17 10:22:43;;;;;;;5.97;4.47;;;25.40;35.40;;;;;;5071029;28;20025;-73
2023/07/17 10:25:29;;;;;;;7.45;4.25;;;25.00;36.50;;;;;;5071378;28;20422;-73
2023/07/17 10:28:02;;;;;;;7.28;4.60;;;25.00;36.90;;;;;;5068253;28;20418;-74
2023/07/17 10:30:36;;;;;;;10.02;4.47;;;25.00;36.20;;;;;;5070370;28;20032;-75
2023/07/17 10:33:06;;;;;;;17.27;5.38;;;25.10;36.30;;;;;;5071693;28;20103;-74
2023/07/17 10:35:56;;;;;;;7.82;4.60;;;25.20;35.10;;;;;;5071404;28;20028;-73
2023/07/17 10:38:24;;;;;;;10.27;4.47;;;25.40;34.80;;;;;;5071009;28;20046;-73
2023/07/17 10:41:04;;;;;;;7.68;4.43;;;25.40;34.60;;;;;;5072020;28;20024;-74
2023/07/17 10:43:34;;;;;;;7.72;4.07;;;25.60;34.30;;;;;;5071251;28;20020;-72
2023/07/17 10:46:06;;;;;;;8.85;4.30;;;25.60;34.50;;;;;;5071516;28;20099;-71
2023/07/17 10:48:34;;;;;;;7.25;4.00;;;25.70;34.70;;;;;;5070717;28;20036;-74
2023/07/17 10:50:59;;;;;;;8.60;4.57;;;25.90;33.30;;;;;;5073738;28;20028;-73
2023/07/17 10:53:25;;;;;;;9.27;4.85;;;25.70;34.70;;;;;;5072553;28;20494;-75
2023/07/17 10:55:51;;;;;;;6.18;4.03;;;25.90;33.30;;;;;;5070279;28;20036;-73
2023/07/17 10:58:20;;;;;;;8.80;4.43;;;26.40;32.60;;;;;;5070612;28;20461;-74
2023/07/17 11:00:46;;;;;;;9.50;4.22;;;26.90;31.40;;;;;;5071798;28;20104;-75
2023/07/17 11:03:16;;;;;;;7.88;4.40;;;27.30;30.60;;;;;;5070652;28;20468;-74
2023/07/17 11:05:44;;;;;;;8.23;3.90;;;27.50;28.00;;;;;;5072114;28;20028;-71
2023/07/17 11:08:12;;;;;;;6.95;3.72;;;27.40;28.70;;;;;;5072239;28;20044;-75
2023/07/17 11:10:40;;;;;;;6.10;3.85;;;27.70;28.70;;;;;;5072103;28;20107;-72
2023/07/17 11:13:07;;;;;;;7.82;4.13;;;27.70;29.40;;;;;;5073040;28;20021;-74
2023/07/17 11:15:33;;;;;;;6.25;4.32;;;27.20;29.50;;;;;;5075708;28;20562;-73
2023/07/17 11:18:00;;;;;;;8.82;4.28;;;27.10;31.00;;;;;;5074969;28;20032;-72
2023/07/17 11:20:26;;;;;;;7.07;4.40;;;26.80;30.90;;;;;;5075655;28;20028;-74
2023/07/17 11:22:52;;;;;;;6.38;4.18;;;26.50;31.40;;;;;;5074396;28;20035;-73
2023/07/17 11:25:19;;;;;;;6.35;3.92;;;26.10;31.70;;;;;;5075932;28;20092;-73
2023/07/17 11:27:45;;;;;;;7.10;4.53;;;26.30;32.50;;;;;;5074548;28;20143;-73
2023/07/17 11:30:19;;;;;;;8.95;4.10;;;26.60;32.60;;;;;;5074224;28;20070;-73
2023/07/17 11:32:54;;;;;;;8.38;4.60;;;26.90;30.80;;;;;;5074170;28;20031;-73
2023/07/17 11:35:20;;;;;;;5.75;4.38;;;26.70;32.40;;;;;;5075307;28;20104;-72
2023/07/17 11:37:45;;;;;;;7.25;4.35;;;26.80;32.00;;;;;;5074122;28;20496;-73
2023/07/17 11:40:11;;;;;;;7.78;4.63;;;26.90;31.10;;;;;;5075329;28;20376;-73
2023/07/17 11:42:57;;;;;;;6.10;4.15;;;27.20;31.90;;;;;;5074462;28;20039;-72
2023/07/17 11:45:24;;;;;;;7.20;4.55;;;27.40;31.80;;;;;;5074955;28;20039;-72
2023/07/17 11:47:55;;;;;;;6.25;4.70;;;27.90;30.50;;;;;;5075476;28;20044;-71
2023/07/17 11:50:25;;;;;;;6.40;4.35;;;27.50;30.10;;;;;;5075309;28;20494;-72
2023/07/17 11:53:06;;;;;;;8.77;4.28;;;27.30;30.80;;;;;;5075146;28;20070;-74
2023/07/17 11:55:36;;;;;;;9.00;4.18;;;27.30;31.30;;;;;;5073989;28;20036;-74
2023/07/17 11:58:12;;;;;;;8.02;4.05;;;27.30;30.30;;;;;;5073713;28;20021;-72
2023/07/17 12:00:43;;;;;;;6.20;3.72;;;27.30;29.40;;;;;;5074954;28;20033;-74
2023/07/17 12:03:09;;;;;;;5.45;3.60;;;27.00;29.70;;;;;;5074799;28;20595;-73
2023/07/17 12:05:38;;;;;;;4.18;3.60;;;26.70;29.50;;;;;;5074928;28;20103;-73
2023/07/17 12:08:04;;;;;;;8.35;3.97;;;26.70;30.40;;;;;;5073400;28;20024;-73
2023/07/17 12:10:31;;;;;;;7.47;4.20;;;26.70;30.00;;;;;;5073548;28;20017;-74
2023/07/17 12:12:57;;;;;;;7.53;4.40;;;26.60;30.60;;;;;;5073829;28;20186;-74
2023/07/17 12:15:23;;;;;;;8.23;4.55;;;26.30;33.10;;;;;;5073679;28;20021;-73
2023/07/17 12:17:49;;;;;;;7.65;4.45;;;25.90;34.50;;;;;;5074523;28;20029;-73
2023/07/17 12:20:20;;;;;;;6.25;4.47;;;26.10;34.50;;;;;;5074166;28;20388;-74
2023/07/17 12:22:50;;;;;;;6.50;4.10;;;26.30;35.40;;;;;;5074769;28;20021;-75
2023/07/17 12:25:15;;;;;;;7.45;4.45;;;26.60;34.00;;;;;;5072246;28;20544;-75
2023/07/17 12:27:42;;;;;;;5.93;4.18;;;26.90;32.10;;;;;;5074359;28;20078;-74
2023/07/17 12:30:09;;;;;;;6.72;4.03;;;26.90;31.10;;;;;;5074525;28;20070;-74
2023/07/17 12:32:35;;;;;;;5.38;3.60;;;27.20;31.00;;;;;;5074368;28;20036;-75
2023/07/17 12:35:00;;;;;;;6.50;4.05;;;27.50;31.30;;;;;;5074263;28;20416;-74
2023/07/17 12:37:29;;;;;;;8.43;3.97;;;27.80;30.70;;;;;;5074357;28;20028;-75
2023/07/17 12:39:56;;;;;;;9.15;4.13;;;27.90;30.40;;;;;;5074334;28;20021;-75
2023/07/17 12:42:21;;;;;;;7.60;5.00;;;27.60;31.10;;;;;;5072831;28;20024;-75